Parksley, VA

7:18 PM EST on February 26, 2015 (GMT -0500)
County Rd | Change Station
CLOSE
Current Station
Personal Weather Station
Location: Parksley, VA
Elevation: 43 ft
Nearby Weather Stations
Active Advisory: Special Statement Active Notice: Public Information Statement

Elev 43 ft 37.79 °N, 75.63 °W | Updated 2 minutes ago

Overcast
Overcast
30.6 °F
Feels Like 31 °F
N
0.0
Wind Variable Wind from NNW
Gusts 7.0 mph

Today
High -- | Low -- °F
--% Chance of Precip.
Yesterday
High -- | Low -- °F
Precip. -- in
6:38 AM 5:52 PM
Waxing Gibbous, 63% visible
Pressure 30.07 in
Visibility 10.0 miles
Clouds Overcast 4200 ft
Windchill 31 °F
Dew Point 28 °F
Humidity 88%
Rainfall 0.14 in
Snow Depth Not available.
UV 0 out of 12
Pollen .90 out of 12
Air Quality Not available.
Flu Activity Not available.
METAR KMFV 270015Z AUTO 00000KT 10SM OVC042 00/M03 A3007 RMK AO2

More Conditions Fewer Conditions

Pressure 30.07 in
Visibility 10.0 miles
Clouds Overcast 4200 ft
Windchill 31 °F
Dew Point 28 °F
Humidity 88%
Rainfall 0.14 in
Snow Depth Not available.
UV 0 out of 12
Pollen .90 out of 12
Air Quality Not available.
Flu Activity Not available.
METAR KMFV 270015Z AUTO 00000KT 10SM OVC042 00/M03 A3007 RMK AO2

More Conditions Fewer Conditions

10-Day Weather Forecast

Almanac

Astronomy

Feb. 26, 2015 Rise Set
Actual Time
Civil Twilight
Nautical Twilight
Astronomical Twilight
Moon
Length of Visible Light
Length of Day
Tomorrow will be .
, % of the Moon is Illuminated

Today's Extremes

State Highs State Lows

Community

WunderPhotos

Upload Photos

1,800,541 photos uploaded!

WunderBlogs® & News

Nearby

Air Quality

  Air Quality AQ Index Pollutant
Not available.

Snow Depth

Station Depth Elevation

Earthquake Activity

City Distance Mag. Time & Date
Minimum magnitude displayed is 2.5.

Coastal Water Temperatures

Place Temperature

Nearby Weather Stations

Special Statement
Statement as of 4:10 PM EST on February 26, 2015

... Hazardous travel conditions tonight...

Hazardous driving conditions are expected tonight into Friday
morning. Snow that fell across the area earlier today will refreeze
and become icy in spots. Motorists should be alert for areas of
black ice on area roadways. Additionally, many secondary and rural
roads remain icy and snow-covered. Pump your brakes lightly to
avoid skidding and drive defensively. Allow for extra time to
reach your destination and avoid any sudden stops or
accelerations.


05